CheckWX is a tool to help pilots better visualize weather data.  It is not intended as a substitute for an official pre-flight weather briefing.

07:28:58 UTC

12N METAR
Aeroflex-Andover Airport
Andover, New Jersey, USA
Current

35 mins ago

K12N 200654Z AUTO 00000KT 20/19 A3007 RMK AO1 SLP171 T02000194
Observed
Aug-20 @ 06:54 UTC
Visibility
Temperature
20°C / 68°F
Dewpoint
19°C / 66°F
Humidity
94%
Altimeter
30.07" Hg
Pressure
1018.32 hPa
Previous

2 hours ago

K12N 200554Z AUTO 00000KT 21/20 A3005 RMK AO1 SLP167 T02060200 10244 20206 53002
Observed
Aug-20 @ 05:54 UTC
Visibility
Temperature
21°C / 70°F
Dewpoint
20°C / 68°F
Humidity
94%
Altimeter
30.05" Hg
Pressure
1017.62 hPa
Previous

3 hours ago

K12N 200454Z AUTO 00000KT 21/20 A3005 RMK AO1 SLP165 T02060200 403220194
Observed
Aug-20 @ 04:54 UTC
Visibility
Temperature
21°C / 70°F
Dewpoint
20°C / 68°F
Humidity
94%
Altimeter
30.05" Hg
Pressure
1017.62 hPa